Latest Weather Observations for Cape Borda

IDS60801

Issued at 5:31 am CDT Thursday 30 March 2017 (issued every 30 minutes, with the page automatically refreshed every 10 minutes)

About weather observations | Map of weather stations | Latest weather observations for SA | Other Formats
Station Details ID: 022823 Name: CAPE BORDA Lat: -35.75 Lon: 136.60 Height: 158.0 m
Data from the previous 72 hours. | See also: Recent months at Cape Borda
Date/Time
CDT
Temp
°C
App
Temp
°C
Dew
Point
°C
Rel
Hum
%
Delta-T
°C
Wind Press
QNH
hPa
Press
MSL
hPa
Rain since
9am
mm
Dir  Spd
km/h
Gust
km/h
Spd
kts
Gust
kts
30/05:30am 11.0 5.6 6.3 73 2.2 S 24 35 13 19 1020.1 - 4.6
30/05:00am 10.8 5.8 7.9 82 1.4 S 24 41 13 22 1020.0 - 4.6
30/04:48am 11.9 5.8 6.7 70 2.5 SSW 28 46 15 25 1019.7 - 4.4
30/04:30am 11.0 6.4 6.6 74 2.1 S 20 28 11 15 1019.7 - 4.4
30/04:00am 11.7 5.6 4.7 62 3.2 S 26 37 14 20 1019.5 - 4.4
30/03:45am 12.4 5.8 6.1 65 3.0 SSW 30 50 16 27 1019.3 - 4.4
30/03:30am 12.4 6.1 5.6 63 3.2 SSW 28 37 15 20 1019.3 - 4.4
30/03:00am 12.8 5.6 4.8 58 3.7 SSW 32 44 17 24 1019.2 1019.0 4.4
30/02:30am 12.8 5.9 4.8 58 3.7 SSW 30 43 16 23 1019.1 - 4.4
30/02:00am 12.1 6.3 6.2 67 2.8 SSW 26 37 14 20 1019.0 - 4.4
30/01:49am 12.9 6.6 5.7 61 3.4 SSW 28 48 15 26 1018.9 - 4.4
30/01:30am 12.9 5.9 4.1 55 4.0 SSW 30 41 16 22 1018.8 - 4.4
30/01:00am 12.7 5.7 4.1 56 3.9 SW 30 43 16 23 1018.8 - 4.4
30/12:30am 11.9 6.0 5.7 66 2.9 S 26 33 14 18 1018.7 - 4.4
30/12:00am 12.1 6.1 5.5 64 3.1 SW 26 41 14 22 1018.6 1018.4 4.4
 
Date/Time
CDT
Temp
°C
App
Temp
°C
Dew
Point
°C
Rel
Hum
%
Delta-T
°C
Wind Press
QNH
hPa
Press
MSL
hPa
Rain since
9am
mm
Dir  Spd
km/h
Gust
km/h
Spd
kts
Gust
kts
29/11:30pm 11.5 5.2 7.4 76 2.0 SSW 30 50 16 27 1018.5 - 4.4
29/11:24pm 13.0 6.3 3.7 53 4.2 SW 28 50 15 27 1018.5 - 4.2
29/11:00pm 13.0 6.3 5.8 61 3.4 SW 30 43 16 23 1018.4 - 4.2
29/10:30pm 12.7 6.6 6.4 65 3.0 SW 28 39 15 21 1018.0 - 4.2
29/10:00pm 12.3 6.0 5.5 63 3.2 SSW 28 41 15 22 1017.6 - 4.2
29/09:30pm 11.6 6.6 7.9 78 1.8 SW 24 35 13 19 1017.2 - 4.2
29/09:12pm 13.5 6.5 6.0 60 3.6 SW 32 50 17 27 1016.9 - 3.6
29/09:00pm 13.3 6.5 3.3 50 4.5 SW 28 43 15 23 1016.7 1016.5 3.6
29/08:30pm 12.5 5.8 3.6 54 4.0 SSW 28 43 15 23 1016.2 - 3.6
29/08:00pm 12.1 5.2 6.4 68 2.7 S 32 46 17 25 1015.8 - 3.6
29/07:30pm 11.9 7.0 7.1 72 2.3 SW 22 30 12 16 1015.8 - 3.6
29/07:00pm 12.1 3.1 6.2 67 2.8 SW 43 65 23 35 1015.3 - 3.6
29/06:32pm 14.3 7.0 4.7 52 4.5 SW 32 50 17 27 1014.7 - 3.4
29/06:30pm 14.3 6.7 3.9 49 4.8 SW 33 50 18 27 1014.6 - 3.4
29/06:00pm 15.1 7.3 4.7 50 4.9 SW 35 48 19 26 1013.8 1013.6 3.4
29/05:30pm 15.1 7.9 6.0 54 4.4 SW 33 52 18 28 1013.3 - 3.4
29/05:00pm 15.7 7.9 5.0 49 5.1 SW 35 50 19 27 1012.9 - 3.4
29/04:30pm 16.2 8.5 5.4 48 5.2 SW 35 50 19 27 1012.4 - 3.4
29/04:00pm 16.5 8.9 7.6 55 4.5 SW 37 48 20 26 1012.1 - 3.4
29/03:30pm 16.3 8.2 7.1 54 4.6 SW 39 54 21 29 1012.1 - 3.4
29/03:00pm 16.4 8.5 8.0 57 4.3 SW 39 57 21 31 1011.8 1011.6 3.4
29/02:41pm 15.4 9.4 10.9 74 2.4 SSW 33 57 18 31 1011.6 - 3.4
29/02:30pm 16.3 9.8 10.5 68 3.1 SW 35 46 19 25 1011.6 - 3.4
29/02:00pm 16.4 10.4 10.2 66 3.3 SW 32 44 17 24 1011.4 - 3.4
29/01:30pm 15.9 10.1 11.5 75 2.4 SW 33 43 18 23 1011.3 - 3.4
29/01:00pm 14.7 9.1 12.1 84 1.4 SW 33 46 18 25 1011.4 - 3.4
29/12:30pm 13.6 6.7 11.7 88 1.0 SW 39 59 21 32 1011.5 - 3.4
29/12:00pm 13.4 6.7 12.3 93 0.6 SW 39 61 21 33 1011.1 1010.9 3.4
29/11:45am 13.1 5.7 12.4 95 0.4 SSW 43 61 23 33 1010.8 - 3.4
29/11:30am 13.4 5.2 12.9 97 0.3 SSW 48 63 26 34 1010.4 - 2.8
29/11:16am 14.3 7.3 13.8 97 0.3 SSW 43 61 23 33 1010.0 - 2.6
29/11:02am 15.0 7.6 14.3 96 0.4 SW 46 61 25 33 1009.7 - 2.0
29/11:00am 15.4 9.6 14.9 97 0.3 W 39 65 21 35 1009.8 - 2.0
29/10:42am 16.4 9.0 14.1 86 1.3 W 46 69 25 37 1009.9 - 0.2
29/10:40am 18.4 13.5 15.4 83 1.8 WNW 35 54 19 29 1009.6 - 0.0
29/10:30am 18.5 14.0 15.3 81 1.9 WNW 33 48 18 26 1009.5 - 0.0
29/10:13am 18.0 13.6 15.6 86 1.4 WNW 33 54 18 29 1009.6 - 0.0
29/10:00am 18.5 13.4 14.9 79 2.1 NW 35 50 19 27 1009.6 - 0.0
29/09:47am 18.3 13.5 14.7 79 2.1 NW 33 52 18 28 1009.5 - 0.0
29/09:30am 18.3 13.0 14.2 77 2.4 NW 35 50 19 27 1009.6 - 0.0
29/09:00am 18.1 13.4 14.3 78 2.2 NW 32 44 17 24 1009.4 1009.1 0.0
29/08:30am 17.9 12.6 14.1 78 2.2 NW 35 48 19 26 1009.3 - 0.0
29/08:00am 18.0 13.4 14.6 80 2.0 NW 32 43 17 23 1009.3 - 0.0
29/07:30am 17.9 13.7 13.5 75 2.5 WNW 28 41 15 22 1009.3 - 0.0
29/07:00am 17.8 14.1 14.9 83 1.7 NW 28 39 15 21 1009.2 - 0.0
29/06:30am 18.0 13.6 14.2 78 2.2 NW 30 41 16 22 1009.2 - 0.0
29/06:00am 17.6 14.6 14.7 83 1.7 NW 24 33 13 18 1009.0 1008.7 0.0
29/05:30am 17.5 14.4 14.6 83 1.7 NW 24 35 13 19 1009.0 - 0.0
29/05:00am 17.6 14.6 14.9 84 1.6 WNW 24 35 13 19 1009.3 - 0.0
29/04:30am 17.3 14.4 15.1 87 1.3 NW 24 35 13 19 1009.1 - 0.0
29/04:00am 17.3 14.5 15.3 88 1.2 NW 24 35 13 19 1009.5 - 0.0
29/03:30am 16.9 13.8 14.5 86 1.4 WNW 24 32 13 17 1010.2 - 0.0
29/03:00am 17.2 14.4 14.4 83 1.6 NW 22 30 12 16 1010.4 1010.1 0.0
29/02:30am 16.9 14.6 14.1 83 1.6 WNW 19 28 10 15 1010.6 - 0.0
29/02:00am 16.8 12.4 14.2 85 1.5 NW 30 35 16 19 1010.8 - 0.0
29/01:30am 17.5 13.7 13.6 78 2.2 NW 26 33 14 18 1010.8 - 0.0
29/01:00am 17.4 14.8 13.3 77 2.3 NW 19 28 10 15 1011.2 - 0.0
29/12:30am 17.2 13.4 12.4 73 2.7 NW 24 33 13 18 1011.7 - 0.0
29/12:00am 17.7 14.0 12.7 72 2.8 NW 24 33 13 18 1011.9 1011.7 0.0
 
Date/Time
CDT
Temp
°C
App
Temp
°C
Dew
Point
°C
Rel
Hum
%
Delta-T
°C
Wind Press
QNH
hPa
Press
MSL
hPa
Rain since
9am
mm
Dir  Spd
km/h
Gust
km/h
Spd
kts
Gust
kts
28/11:30pm 17.4 14.9 13.5 78 2.2 WNW 19 26 10 14 1012.2 - 0.0
28/11:00pm 17.8 14.0 12.4 70 3.0 WNW 24 33 13 18 1012.3 - 0.0
28/10:30pm 17.7 15.1 13.7 77 2.3 WNW 20 28 11 15 1012.4 - 0.0
28/10:00pm 17.8 15.2 13.8 77 2.3 WNW 20 32 11 17 1012.6 - 0.0
28/09:30pm 17.6 13.6 13.0 74 2.6 WNW 26 35 14 19 1012.6 - 0.0
28/09:00pm 17.5 14.3 13.1 75 2.5 WNW 22 32 12 17 1012.6 1012.4 0.0
28/08:30pm 17.4 14.9 14.1 81 1.9 W 20 28 11 15 1012.4 - 0.0
28/08:00pm 17.1 13.5 13.2 78 2.2 W 24 39 13 21 1012.3 - 0.0
28/07:30pm 17.6 14.2 13.6 77 2.3 NW 24 35 13 19 1012.3 - 0.0
28/07:00pm 17.6 14.0 13.0 74 2.6 NW 24 35 13 19 1012.2 - 0.0
28/06:30pm 17.6 14.0 13.2 75 2.5 WNW 24 32 13 17 1012.1 - 0.0
28/06:00pm 17.6 13.8 12.4 71 2.9 WNW 24 35 13 19 1012.4 1012.2 0.0
28/05:30pm 17.8 14.2 11.8 68 3.3 NW 22 32 12 17 1012.6 - 0.0
28/05:00pm 18.4 15.4 12.5 68 3.3 NW 20 30 11 16 1012.7 - 0.0
28/04:30pm 18.3 15.3 12.6 69 3.2 NW 20 32 11 17 1012.9 - 0.0
28/04:00pm 18.8 14.8 11.8 64 3.9 WNW 24 32 13 17 1013.2 - 0.0
28/03:30pm 18.5 14.9 12.0 66 3.6 WNW 22 33 12 18 1013.3 - 0.0
28/03:00pm 18.6 15.3 11.7 64 3.8 NW 20 30 11 16 1013.5 1013.3 0.0
28/02:30pm 18.8 15.0 11.1 61 4.2 NW 22 30 12 16 1013.7 - 0.0
28/02:00pm 18.8 14.9 10.7 59 4.4 NW 22 32 12 17 1014.2 - 0.0
28/01:30pm 19.0 15.1 10.7 58 4.5 NW 22 30 12 16 1014.4 - 0.0
28/01:00pm 18.8 15.1 11.4 62 4.1 W 22 32 12 17 1014.7 - 0.0
28/12:30pm 18.8 15.4 11.1 61 4.2 NW 20 28 11 15 1015.2 - 0.0
28/12:00pm 19.7 16.1 10.7 56 4.9 NW 20 30 11 16 1015.4 1015.1 0.0
28/11:30am 18.7 14.6 10.1 57 4.6 W 22 30 12 16 1015.7 - 0.0
28/11:00am 18.8 14.4 10.5 58 4.5 W 24 35 13 19 1015.8 - 0.0
28/10:30am 18.2 14.2 10.6 61 4.1 W 22 32 12 17 1015.7 - 0.0
28/10:00am 17.3 13.9 11.2 67 3.3 W 20 30 11 16 1015.8 - 0.0
28/09:30am 18.1 14.5 10.5 61 4.1 WNW 20 28 11 15 1015.6 - 0.0
28/09:00am 16.8 13.0 11.1 69 3.1 W 22 30 12 16 1015.5 1015.2 0.0
28/08:30am 16.3 12.6 10.3 67 3.2 W 20 30 11 16 1015.4 - 0.0
28/08:00am 16.0 12.5 10.8 71 2.8 W 20 28 11 15 1015.1 - 0.0
28/07:30am 15.6 13.3 11.7 77 2.1 W 15 24 8 13 1015.1 - 0.0
28/07:00am 15.9 12.6 10.9 72 2.7 W 19 26 10 14 1015.0 - 0.0
28/06:30am 15.7 12.1 10.6 71 2.7 W 20 26 11 14 1014.8 - 0.0
28/06:00am 15.9 12.1 11.3 74 2.5 W 22 28 12 15 1014.8 1014.5 0.0
28/05:30am 15.6 12.1 10.3 70 2.8 W 19 26 10 14 1014.6 - 0.0
28/05:00am 15.7 11.9 9.8 68 3.1 W 20 33 11 18 1014.6 - 0.0
28/04:30am 15.5 12.0 10.2 70 2.8 W 19 26 10 14 1014.9 - 0.0
28/04:00am 15.8 11.6 9.7 67 3.2 W 22 32 12 17 1015.0 - 0.0
28/03:30am 15.8 11.6 9.7 67 3.2 W 22 33 12 18 1015.2 - 0.0
28/03:00am 15.9 12.2 10.0 68 3.1 W 20 32 11 17 1015.3 1015.0 0.0
28/02:30am 15.9 12.1 9.8 67 3.2 W 20 28 11 15 1015.6 - 0.0
28/02:00am 16.0 11.4 9.7 66 3.3 W 24 32 13 17 1015.8 - 0.0
28/01:30am 16.0 11.8 9.9 67 3.2 W 22 32 12 17 1015.9 - 0.0
28/01:00am 16.2 12.3 10.8 70 2.9 W 22 30 12 16 1016.0 - 0.0
28/12:30am 16.5 13.3 12.0 75 2.5 W 20 28 11 15 1016.1 - 0.0
28/12:00am 16.6 13.1 10.8 68 3.1 W 20 30 11 16 1016.1 1015.8 0.0
 
Date/Time
CDT
Temp
°C
App
Temp
°C
Dew
Point
°C
Rel
Hum
%
Delta-T
°C
Wind Press
QNH
hPa
Press
MSL
hPa
Rain since
9am
mm
Dir  Spd
km/h
Gust
km/h
Spd
kts
Gust
kts
27/11:30pm 16.4 12.9 10.8 69 3.0 W 20 28 11 15 1016.2 - 0.0
27/11:00pm 16.3 12.7 10.5 68 3.1 W 20 28 11 15 1016.3 - 0.0
27/10:30pm 16.2 12.6 10.6 69 3.0 W 20 28 11 15 1016.1 - 0.0
27/10:00pm 16.3 12.4 10.7 69 3.0 W 22 32 12 17 1016.1 - 0.0
27/09:30pm 16.1 12.5 10.7 70 2.9 WSW 20 28 11 15 1015.9 - 0.0
27/09:00pm 16.2 12.9 10.8 70 2.9 WSW 19 24 10 13 1015.6 1015.3 0.0
27/08:30pm 16.3 12.4 10.9 70 2.9 WSW 22 32 12 17 1015.5 - 0.0
27/08:00pm 16.4 12.9 11.0 70 2.9 W 20 32 11 17 1015.1 - 0.0
27/07:30pm 16.6 13.3 11.7 73 2.7 W 20 32 11 17 1015.0 - 0.0
27/07:00pm 17.2 13.6 11.7 70 3.0 WSW 22 30 12 16 1014.8 - 0.0
27/06:30pm 17.4 14.0 12.4 72 2.8 WSW 22 32 12 17 1014.6 - 0.0
27/06:00pm 18.5 15.3 11.8 65 3.7 WSW 20 30 11 16 1014.3 1014.0 0.0
27/05:30pm 18.8 14.7 11.4 62 4.1 WSW 24 35 13 19 1014.6 - 0.0
27/05:00pm 19.0 14.0 11.0 59 4.4 W 28 39 15 21 1014.6 - 0.0
27/04:30pm 19.3 14.7 10.9 58 4.6 W 26 39 14 21 1014.4 - 0.0
27/04:00pm 19.5 14.0 12.0 62 4.2 W 32 43 17 23 1014.2 - 0.0
27/03:30pm 19.2 14.3 12.4 64 3.8 W 30 41 16 22 1014.4 - 0.0
27/03:00pm 20.2 14.7 12.0 59 4.6 W 32 43 17 23 1014.5 1014.2 0.0
27/02:30pm 19.3 14.6 12.0 62 4.1 W 28 39 15 21 1014.5 - 0.0
27/02:00pm 19.8 14.4 10.9 56 4.9 W 30 43 16 23 1014.6 - 0.0
27/01:30pm 19.6 14.2 12.3 62 4.1 W 32 44 17 24 1014.6 - 0.0
27/01:00pm 19.5 13.6 11.1 58 4.6 W 33 43 18 23 1014.6 - 0.0
27/12:30pm 19.6 14.1 10.4 55 5.0 W 30 44 16 24 1014.7 - 0.0
27/12:00pm 19.7 14.4 11.2 58 4.7 WSW 30 43 16 23 1014.6 1014.3 0.0
27/11:44am 19.4 14.0 11.0 58 4.6 WSW 30 48 16 26 1014.5 - 0.0
27/11:30am 19.1 14.3 11.5 61 4.2 W 28 37 15 20 1014.3 - 0.0
27/11:00am 19.0 11.8 10.7 58 4.5 W 39 52 21 28 1014.0 - 0.0
27/10:49am 19.0 13.1 11.0 59 4.4 W 33 54 18 29 1013.9 - 0.0
27/10:30am 18.8 12.9 11.1 61 4.2 W 33 44 18 24 1013.5 - 0.0
27/10:16am 18.5 13.4 10.6 60 4.3 W 28 46 15 25 1013.3 - 0.0
27/10:00am 18.5 12.6 11.0 61 4.1 W 33 48 18 26 1013.0 - 0.0
27/09:30am 17.7 11.3 10.7 63 3.8 W 35 59 19 32 1012.7 - 0.0
27/09:03am 17.4 10.9 10.3 63 3.8 W 35 54 19 29 1012.1 - 0.0
27/09:00am 17.5 10.1 9.8 60 4.1 W 39 54 21 29 1012.0 1011.8 0.0
27/08:34am 17.3 11.8 11.7 69 3.1 W 32 50 17 27 1011.6 - 0.0
27/08:30am 17.3 11.2 11.7 69 3.1 W 35 50 19 27 1011.6 - 0.0
27/08:02am 17.3 11.3 12.1 71 2.9 W 35 54 19 29 1010.8 - 0.0
27/08:00am 17.4 11.1 12.2 71 2.9 W 37 50 20 27 1011.1 - 0.0
27/07:30am 17.0 12.0 12.1 73 2.7 W 30 44 16 24 1010.8 - 0.0
27/07:01am 17.4 11.8 11.6 69 3.2 W 32 50 17 27 1010.3 - 0.0
27/07:00am 17.5 12.1 12.1 70 3.0 W 32 44 17 24 1010.3 - 0.0
27/06:33am 17.4 12.1 12.6 73 2.7 WSW 32 50 17 27 1009.2 - 0.0
27/06:30am 17.5 11.6 12.3 71 2.9 WSW 35 50 19 27 1009.0 - 0.0
27/06:00am 17.5 12.4 13.1 75 2.5 WSW 32 48 17 26 1008.1 1007.8 0.0
27/05:36am 17.5 12.3 12.9 74 2.6 WSW 32 50 17 27 1007.9 - 0.0

Other Formats:

Comma delimited format used in spreadsheet applications
http://www.bom.gov.au/fwo/IDS60801/IDS60801.95805.axf

JavaScript Object Notation format (JSON) in row-major order
http://www.bom.gov.au/fwo/IDS60801/IDS60801.95805.json